sensor_id;sensor_type;location;lat;lon;timestamp;P1;durP1;ratioP1;P2;durP2;ratioP2
28266;SDS011;15525;45.568;5.448;2023-04-06T00:01:24;18.63;;;11.05;;
28266;SDS011;15525;45.568;5.448;2023-04-06T00:03:50;18.45;;;10.70;;
28266;SDS011;15525;45.568;5.448;2023-04-06T00:06:15;20.10;;;11.38;;
28266;SDS011;15525;45.568;5.448;2023-04-06T00:08:41;20.05;;;12.02;;
28266;SDS011;15525;45.568;5.448;2023-04-06T00:11:07;20.48;;;12.20;;
28266;SDS011;15525;45.568;5.448;2023-04-06T00:13:32;19.90;;;11.95;;
28266;SDS011;15525;45.568;5.448;2023-04-06T00:15:57;20.83;;;12.00;;
28266;SDS011;15525;45.568;5.448;2023-04-06T00:18:23;18.40;;;11.23;;
28266;SDS011;15525;45.568;5.448;2023-04-06T00:20:48;19.73;;;12.43;;
28266;SDS011;15525;45.568;5.448;2023-04-06T00:23:15;20.15;;;11.88;;
28266;SDS011;15525;45.568;5.448;2023-04-06T00:25:41;20.98;;;12.75;;
28266;SDS011;15525;45.568;5.448;2023-04-06T00:28:06;21.50;;;12.38;;
28266;SDS011;15525;45.568;5.448;2023-04-06T00:30:32;22.25;;;12.90;;
28266;SDS011;15525;45.568;5.448;2023-04-06T00:32:57;19.92;;;12.20;;
28266;SDS011;15525;45.568;5.448;2023-04-06T00:35:23;18.13;;;11.05;;
28266;SDS011;15525;45.568;5.448;2023-04-06T00:37:48;18.63;;;11.73;;
28266;SDS011;15525;45.568;5.448;2023-04-06T00:40:13;19.60;;;12.07;;
28266;SDS011;15525;45.568;5.448;2023-04-06T00:42:39;23.10;;;11.63;;
28266;SDS011;15525;45.568;5.448;2023-04-06T00:45:05;18.25;;;11.85;;
28266;SDS011;15525;45.568;5.448;2023-04-06T00:47:32;18.15;;;10.88;;
28266;SDS011;15525;45.568;5.448;2023-04-06T00:49:58;17.00;;;10.68;;
28266;SDS011;15525;45.568;5.448;2023-04-06T00:52:23;18.08;;;10.98;;
28266;SDS011;15525;45.568;5.448;2023-04-06T00:54:49;17.98;;;11.00;;
28266;SDS011;15525;45.568;5.448;2023-04-06T00:57:15;18.45;;;11.60;;
28266;SDS011;15525;45.568;5.448;2023-04-06T00:59:41;17.98;;;11.02;;
28266;SDS011;15525;45.568;5.448;2023-04-06T01:02:08;21.75;;;11.93;;
28266;SDS011;15525;45.568;5.448;2023-04-06T01:04:33;21.23;;;11.65;;
28266;SDS011;15525;45.568;5.448;2023-04-06T01:06:59;18.60;;;11.73;;
28266;SDS011;15525;45.568;5.448;2023-04-06T01:09:24;19.70;;;11.45;;
28266;SDS011;15525;45.568;5.448;2023-04-06T01:11:52;22.27;;;12.13;;
28266;SDS011;15525;45.568;5.448;2023-04-06T01:14:17;22.55;;;11.95;;
28266;SDS011;15525;45.568;5.448;2023-04-06T01:16:42;17.27;;;10.35;;
28266;SDS011;15525;45.568;5.448;2023-04-06T01:19:11;19.77;;;11.10;;
28266;SDS011;15525;45.568;5.448;2023-04-06T01:21:37;18.67;;;10.77;;
28266;SDS011;15525;45.568;5.448;2023-04-06T01:24:04;18.63;;;11.32;;
28266;SDS011;15525;45.568;5.448;2023-04-06T01:26:30;19.58;;;11.50;;
28266;SDS011;15525;45.568;5.448;2023-04-06T01:28:55;19.23;;;11.55;;
28266;SDS011;15525;45.568;5.448;2023-04-06T01:31:21;20.67;;;12.05;;
28266;SDS011;15525;45.568;5.448;2023-04-06T01:33:47;21.90;;;12.45;;
28266;SDS011;15525;45.568;5.448;2023-04-06T01:36:13;16.50;;;10.40;;
28266;SDS011;15525;45.568;5.448;2023-04-06T01:38:38;18.98;;;11.38;;
28266;SDS011;15525;45.568;5.448;2023-04-06T01:41:04;20.10;;;11.52;;
28266;SDS011;15525;45.568;5.448;2023-04-06T01:43:30;20.05;;;11.10;;
28266;SDS011;15525;45.568;5.448;2023-04-06T01:55:42;19.08;;;11.15;;
28266;SDS011;15525;45.568;5.448;2023-04-06T01:58:07;19.23;;;11.55;;
28266;SDS011;15525;45.568;5.448;2023-04-06T02:00:33;19.75;;;12.23;;
28266;SDS011;15525;45.568;5.448;2023-04-06T02:02:58;25.52;;;13.38;;
28266;SDS011;15525;45.568;5.448;2023-04-06T02:05:24;25.27;;;13.70;;
28266;SDS011;15525;45.568;5.448;2023-04-06T02:07:50;29.08;;;14.98;;
28266;SDS011;15525;45.568;5.448;2023-04-06T02:10:16;29.88;;;15.02;;
28266;SDS011;15525;45.568;5.448;2023-04-06T02:12:42;25.55;;;14.23;;
28266;SDS011;15525;45.568;5.448;2023-04-06T02:15:08;23.85;;;13.65;;
28266;SDS011;15525;45.568;5.448;2023-04-06T02:17:33;23.15;;;12.75;;
28266;SDS011;15525;45.568;5.448;2023-04-06T02:19:59;24.08;;;13.20;;
28266;SDS011;15525;45.568;5.448;2023-04-06T02:22:24;22.10;;;12.35;;
28266;SDS011;15525;45.568;5.448;2023-04-06T02:24:50;21.80;;;12.65;;
28266;SDS011;15525;45.568;5.448;2023-04-06T02:27:15;21.27;;;11.63;;
28266;SDS011;15525;45.568;5.448;2023-04-06T02:29:41;21.67;;;12.15;;
28266;SDS011;15525;45.568;5.448;2023-04-06T02:32:06;17.80;;;11.18;;
28266;SDS011;15525;45.568;5.448;2023-04-06T02:34:32;17.60;;;10.57;;
28266;SDS011;15525;45.568;5.448;2023-04-06T02:36:58;17.00;;;10.73;;
28266;SDS011;15525;45.568;5.448;2023-04-06T02:39:23;18.15;;;10.55;;
28266;SDS011;15525;45.568;5.448;2023-04-06T02:41:49;19.30;;;11.38;;
28266;SDS011;15525;45.568;5.448;2023-04-06T02:44:15;20.02;;;11.55;;
28266;SDS011;15525;45.568;5.448;2023-04-06T02:46:40;17.40;;;10.50;;
28266;SDS011;15525;45.568;5.448;2023-04-06T02:49:05;20.00;;;11.13;;
28266;SDS011;15525;45.568;5.448;2023-04-06T02:51:31;18.20;;;10.60;;
28266;SDS011;15525;45.568;5.448;2023-04-06T02:53:57;19.95;;;11.50;;
28266;SDS011;15525;45.568;5.448;2023-04-06T02:56:22;19.92;;;10.52;;
28266;SDS011;15525;45.568;5.448;2023-04-06T02:58:47;15.20;;;9.75;;
28266;SDS011;15525;45.568;5.448;2023-04-06T03:01:13;21.90;;;11.43;;
28266;SDS011;15525;45.568;5.448;2023-04-06T03:03:38;18.83;;;11.02;;
28266;SDS011;15525;45.568;5.448;2023-04-06T03:06:04;18.83;;;11.07;;
28266;SDS011;15525;45.568;5.448;2023-04-06T03:08:29;18.13;;;11.45;;
28266;SDS011;15525;45.568;5.448;2023-04-06T03:10:55;19.02;;;11.10;;
28266;SDS011;15525;45.568;5.448;2023-04-06T03:13:21;19.27;;;11.10;;
28266;SDS011;15525;45.568;5.448;2023-04-06T03:15:46;19.55;;;11.35;;
28266;SDS011;15525;45.568;5.448;2023-04-06T03:18:12;21.83;;;11.60;;
28266;SDS011;15525;45.568;5.448;2023-04-06T03:20:37;17.25;;;10.25;;
28266;SDS011;15525;45.568;5.448;2023-04-06T03:23:03;21.25;;;10.95;;
28266;SDS011;15525;45.568;5.448;2023-04-06T03:25:28;20.10;;;10.45;;
28266;SDS011;15525;45.568;5.448;2023-04-06T03:27:55;18.05;;;10.02;;
28266;SDS011;15525;45.568;5.448;2023-04-06T03:30:20;18.58;;;11.07;;
28266;SDS011;15525;45.568;5.448;2023-04-06T03:32:46;19.63;;;11.25;;
28266;SDS011;15525;45.568;5.448;2023-04-06T03:35:11;18.83;;;11.15;;
28266;SDS011;15525;45.568;5.448;2023-04-06T03:37:37;20.15;;;11.40;;
28266;SDS011;15525;45.568;5.448;2023-04-06T03:40:02;18.92;;;10.82;;
28266;SDS011;15525;45.568;5.448;2023-04-06T03:42:29;18.92;;;10.68;;
28266;SDS011;15525;45.568;5.448;2023-04-06T03:44:54;19.15;;;10.55;;
28266;SDS011;15525;45.568;5.448;2023-04-06T03:47:20;18.65;;;11.02;;
28266;SDS011;15525;45.568;5.448;2023-04-06T03:49:45;21.67;;;11.50;;
28266;SDS011;15525;45.568;5.448;2023-04-06T03:52:10;19.10;;;10.40;;
28266;SDS011;15525;45.568;5.448;2023-04-06T03:54:36;21.83;;;11.75;;
28266;SDS011;15525;45.568;5.448;2023-04-06T03:57:01;19.63;;;10.68;;
28266;SDS011;15525;45.568;5.448;2023-04-06T03:59:27;18.80;;;10.70;;
28266;SDS011;15525;45.568;5.448;2023-04-06T04:01:52;19.10;;;10.98;;
28266;SDS011;15525;45.568;5.448;2023-04-06T04:04:18;19.77;;;10.40;;
28266;SDS011;15525;45.568;5.448;2023-04-06T04:06:43;17.85;;;10.95;;
28266;SDS011;15525;45.568;5.448;2023-04-06T04:09:09;19.30;;;11.27;;
28266;SDS011;15525;45.568;5.448;2023-04-06T04:11:34;23.92;;;10.95;;
28266;SDS011;15525;45.568;5.448;2023-04-06T04:14:00;20.38;;;11.32;;
28266;SDS011;15525;45.568;5.448;2023-04-06T04:16:25;18.85;;;11.30;;
28266;SDS011;15525;45.568;5.448;2023-04-06T04:18:51;19.27;;;11.00;;
28266;SDS011;15525;45.568;5.448;2023-04-06T04:21:16;21.65;;;10.85;;
28266;SDS011;15525;45.568;5.448;2023-04-06T04:23:42;19.48;;;10.32;;
28266;SDS011;15525;45.568;5.448;2023-04-06T04:26:07;19.85;;;10.98;;
28266;SDS011;15525;45.568;5.448;2023-04-06T04:28:32;18.63;;;11.38;;
28266;SDS011;15525;45.568;5.448;2023-04-06T04:30:58;18.17;;;10.25;;
28266;SDS011;15525;45.568;5.448;2023-04-06T04:33:23;16.42;;;9.38;;
28266;SDS011;15525;45.568;5.448;2023-04-06T04:35:49;18.15;;;10.40;;
28266;SDS011;15525;45.568;5.448;2023-04-06T04:38:14;18.15;;;10.60;;
28266;SDS011;15525;45.568;5.448;2023-04-06T04:40:40;22.23;;;11.63;;
28266;SDS011;15525;45.568;5.448;2023-04-06T04:43:05;22.15;;;11.90;;
28266;SDS011;15525;45.568;5.448;2023-04-06T04:45:31;21.40;;;11.82;;
28266;SDS011;15525;45.568;5.448;2023-04-06T04:47:56;20.58;;;11.48;;
28266;SDS011;15525;45.568;5.448;2023-04-06T04:50:21;21.27;;;12.07;;
28266;SDS011;15525;45.568;5.448;2023-04-06T04:52:47;23.45;;;12.05;;
28266;SDS011;15525;45.568;5.448;2023-04-06T04:55:13;22.45;;;11.45;;
28266;SDS011;15525;45.568;5.448;2023-04-06T04:57:38;25.42;;;12.52;;
28266;SDS011;15525;45.568;5.448;2023-04-06T05:00:03;22.80;;;11.82;;
28266;SDS011;15525;45.568;5.448;2023-04-06T05:02:29;20.67;;;11.57;;
28266;SDS011;15525;45.568;5.448;2023-04-06T05:04:55;20.75;;;11.90;;
28266;SDS011;15525;45.568;5.448;2023-04-06T05:07:20;20.85;;;11.23;;
28266;SDS011;15525;45.568;5.448;2023-04-06T05:09:46;22.75;;;11.80;;
28266;SDS011;15525;45.568;5.448;2023-04-06T05:12:11;23.45;;;12.30;;
28266;SDS011;15525;45.568;5.448;2023-04-06T05:14:37;24.48;;;12.10;;
28266;SDS011;15525;45.568;5.448;2023-04-06T05:17:02;23.38;;;12.73;;
28266;SDS011;15525;45.568;5.448;2023-04-06T05:19:29;21.67;;;12.25;;
28266;SDS011;15525;45.568;5.448;2023-04-06T05:21:54;24.58;;;12.57;;
28266;SDS011;15525;45.568;5.448;2023-04-06T05:24:20;20.75;;;12.18;;
28266;SDS011;15525;45.568;5.448;2023-04-06T05:26:45;21.80;;;12.18;;
28266;SDS011;15525;45.568;5.448;2023-04-06T05:29:11;25.27;;;12.95;;
28266;SDS011;15525;45.568;5.448;2023-04-06T05:31:37;24.85;;;13.25;;
28266;SDS011;15525;45.568;5.448;2023-04-06T05:34:02;29.13;;;13.75;;
28266;SDS011;15525;45.568;5.448;2023-04-06T05:36:27;25.88;;;15.52;;
28266;SDS011;15525;45.568;5.448;2023-04-06T05:38:53;26.83;;;14.48;;
28266;SDS011;15525;45.568;5.448;2023-04-06T05:41:20;26.50;;;13.48;;
28266;SDS011;15525;45.568;5.448;2023-04-06T05:43:45;24.88;;;13.50;;
28266;SDS011;15525;45.568;5.448;2023-04-06T05:46:10;26.73;;;12.77;;
28266;SDS011;15525;45.568;5.448;2023-04-06T05:48:36;23.83;;;12.52;;
28266;SDS011;15525;45.568;5.448;2023-04-06T05:51:01;24.00;;;13.27;;
28266;SDS011;15525;45.568;5.448;2023-04-06T05:53:31;23.65;;;12.45;;
28266;SDS011;15525;45.568;5.448;2023-04-06T05:55:56;25.83;;;12.68;;
28266;SDS011;15525;45.568;5.448;2023-04-06T05:58:21;24.85;;;13.05;;
28266;SDS011;15525;45.568;5.448;2023-04-06T06:00:47;19.73;;;11.30;;
28266;SDS011;15525;45.568;5.448;2023-04-06T06:03:12;24.77;;;12.63;;
28266;SDS011;15525;45.568;5.448;2023-04-06T06:05:38;27.85;;;13.95;;
28266;SDS011;15525;45.568;5.448;2023-04-06T06:08:03;25.00;;;13.40;;
28266;SDS011;15525;45.568;5.448;2023-04-06T06:10:29;27.98;;;13.32;;
28266;SDS011;15525;45.568;5.448;2023-04-06T06:12:54;26.45;;;13.15;;
28266;SDS011;15525;45.568;5.448;2023-04-06T06:15:20;27.15;;;13.93;;
28266;SDS011;15525;45.568;5.448;2023-04-06T06:17:46;29.13;;;14.02;;
28266;SDS011;15525;45.568;5.448;2023-04-06T06:20:11;29.42;;;14.57;;
28266;SDS011;15525;45.568;5.448;2023-04-06T06:22:37;30.50;;;13.70;;
28266;SDS011;15525;45.568;5.448;2023-04-06T06:25:02;30.50;;;14.18;;
28266;SDS011;15525;45.568;5.448;2023-04-06T06:27:28;34.90;;;15.23;;
28266;SDS011;15525;45.568;5.448;2023-04-06T06:29:53;25.98;;;13.88;;
28266;SDS011;15525;45.568;5.448;2023-04-06T06:32:19;26.27;;;14.25;;
28266;SDS011;15525;45.568;5.448;2023-04-06T06:34:45;26.88;;;13.70;;
28266;SDS011;15525;45.568;5.448;2023-04-06T06:37:10;22.80;;;13.27;;
28266;SDS011;15525;45.568;5.448;2023-04-06T06:39:35;25.58;;;13.98;;
28266;SDS011;15525;45.568;5.448;2023-04-06T06:42:01;28.10;;;13.80;;
28266;SDS011;15525;45.568;5.448;2023-04-06T06:44:27;26.75;;;14.55;;
28266;SDS011;15525;45.568;5.448;2023-04-06T06:46:53;27.20;;;13.75;;
28266;SDS011;15525;45.568;5.448;2023-04-06T06:49:18;26.58;;;13.73;;
28266;SDS011;15525;45.568;5.448;2023-04-06T06:51:44;25.02;;;13.88;;
28266;SDS011;15525;45.568;5.448;2023-04-06T06:54:11;26.77;;;14.40;;
28266;SDS011;15525;45.568;5.448;2023-04-06T06:56:37;24.92;;;13.55;;
28266;SDS011;15525;45.568;5.448;2023-04-06T06:59:04;28.40;;;13.25;;
28266;SDS011;15525;45.568;5.448;2023-04-06T07:01:31;23.77;;;12.85;;
28266;SDS011;15525;45.568;5.448;2023-04-06T07:03:57;28.63;;;13.05;;
28266;SDS011;15525;45.568;5.448;2023-04-06T07:06:22;23.33;;;12.05;;
28266;SDS011;15525;45.568;5.448;2023-04-06T07:08:48;28.83;;;14.02;;
28266;SDS011;15525;45.568;5.448;2023-04-06T07:11:13;21.70;;;13.05;;
28266;SDS011;15525;45.568;5.448;2023-04-06T07:13:39;26.38;;;13.43;;
28266;SDS011;15525;45.568;5.448;2023-04-06T07:16:04;21.10;;;12.23;;
28266;SDS011;15525;45.568;5.448;2023-04-06T07:18:30;27.13;;;14.48;;
28266;SDS011;15525;45.568;5.448;2023-04-06T07:20:55;23.05;;;12.98;;
28266;SDS011;15525;45.568;5.448;2023-04-06T07:23:20;24.58;;;14.13;;
28266;SDS011;15525;45.568;5.448;2023-04-06T07:25:46;23.25;;;13.25;;
28266;SDS011;15525;45.568;5.448;2023-04-06T07:28:11;23.60;;;13.18;;
28266;SDS011;15525;45.568;5.448;2023-04-06T07:30:37;26.17;;;13.38;;
28266;SDS011;15525;45.568;5.448;2023-04-06T07:33:03;21.33;;;13.02;;
28266;SDS011;15525;45.568;5.448;2023-04-06T07:35:28;20.45;;;10.98;;
28266;SDS011;15525;45.568;5.448;2023-04-06T07:37:55;20.17;;;11.00;;
28266;SDS011;15525;45.568;5.448;2023-04-06T07:40:20;21.00;;;11.48;;
28266;SDS011;15525;45.568;5.448;2023-04-06T07:42:46;20.67;;;11.07;;
28266;SDS011;15525;45.568;5.448;2023-04-06T07:45:12;18.30;;;10.07;;
28266;SDS011;15525;45.568;5.448;2023-04-06T07:47:37;18.02;;;10.75;;
28266;SDS011;15525;45.568;5.448;2023-04-06T07:50:03;14.35;;;9.82;;
28266;SDS011;15525;45.568;5.448;2023-04-06T07:52:29;18.20;;;10.60;;
28266;SDS011;15525;45.568;5.448;2023-04-06T07:54:56;15.88;;;9.75;;
28266;SDS011;15525;45.568;5.448;2023-04-06T07:57:22;15.48;;;9.55;;
28266;SDS011;15525;45.568;5.448;2023-04-06T07:59:48;15.52;;;10.02;;
28266;SDS011;15525;45.568;5.448;2023-04-06T08:02:13;18.50;;;11.40;;
28266;SDS011;15525;45.568;5.448;2023-04-06T08:04:39;16.95;;;10.02;;
28266;SDS011;15525;45.568;5.448;2023-04-06T08:07:05;17.52;;;10.55;;
28266;SDS011;15525;45.568;5.448;2023-04-06T08:09:30;14.63;;;9.90;;
28266;SDS011;15525;45.568;5.448;2023-04-06T08:11:55;15.45;;;9.18;;
28266;SDS011;15525;45.568;5.448;2023-04-06T08:14:21;15.43;;;9.48;;
28266;SDS011;15525;45.568;5.448;2023-04-06T08:16:46;16.92;;;10.20;;
28266;SDS011;15525;45.568;5.448;2023-04-06T08:19:12;18.70;;;10.18;;
28266;SDS011;15525;45.568;5.448;2023-04-06T08:21:38;18.20;;;9.48;;
28266;SDS011;15525;45.568;5.448;2023-04-06T08:24:05;17.05;;;8.93;;
28266;SDS011;15525;45.568;5.448;2023-04-06T08:26:31;14.93;;;8.90;;
28266;SDS011;15525;45.568;5.448;2023-04-06T08:28:56;14.38;;;9.05;;
28266;SDS011;15525;45.568;5.448;2023-04-06T08:31:21;12.40;;;8.50;;
28266;SDS011;15525;45.568;5.448;2023-04-06T08:33:47;14.75;;;9.20;;
28266;SDS011;15525;45.568;5.448;2023-04-06T08:36:13;12.05;;;7.93;;
28266;SDS011;15525;45.568;5.448;2023-04-06T08:38:39;15.70;;;8.63;;
28266;SDS011;15525;45.568;5.448;2023-04-06T08:41:12;14.73;;;8.95;;
28266;SDS011;15525;45.568;5.448;2023-04-06T08:43:42;13.38;;;8.23;;
28266;SDS011;15525;45.568;5.448;2023-04-06T08:46:09;12.25;;;7.93;;
28266;SDS011;15525;45.568;5.448;2023-04-06T08:48:36;14.82;;;8.43;;
28266;SDS011;15525;45.568;5.448;2023-04-06T08:51:03;14.90;;;8.10;;
28266;SDS011;15525;45.568;5.448;2023-04-06T08:53:29;12.05;;;8.02;;
28266;SDS011;15525;45.568;5.448;2023-04-06T08:55:55;15.05;;;8.68;;
28266;SDS011;15525;45.568;5.448;2023-04-06T08:58:23;12.48;;;8.20;;
28266;SDS011;15525;45.568;5.448;2023-04-06T09:00:50;13.73;;;8.20;;
28266;SDS011;15525;45.568;5.448;2023-04-06T09:03:17;12.43;;;8.55;;
28266;SDS011;15525;45.568;5.448;2023-04-06T09:05:43;12.93;;;8.80;;
28266;SDS011;15525;45.568;5.448;2023-04-06T09:08:11;13.23;;;8.85;;
28266;SDS011;15525;45.568;5.448;2023-04-06T09:10:38;12.07;;;8.30;;
28266;SDS011;15525;45.568;5.448;2023-04-06T09:13:06;13.43;;;7.82;;
28266;SDS011;15525;45.568;5.448;2023-04-06T09:15:31;13.55;;;8.52;;
28266;SDS011;15525;45.568;5.448;2023-04-06T09:17:57;13.35;;;7.90;;
28266;SDS011;15525;45.568;5.448;2023-04-06T09:20:24;16.23;;;8.57;;
28266;SDS011;15525;45.568;5.448;2023-04-06T09:22:53;13.48;;;8.30;;
28266;SDS011;15525;45.568;5.448;2023-04-06T09:25:20;11.73;;;8.52;;
28266;SDS011;15525;45.568;5.448;2023-04-06T09:27:48;13.57;;;8.68;;
28266;SDS011;15525;45.568;5.448;2023-04-06T09:30:15;12.65;;;8.40;;
28266;SDS011;15525;45.568;5.448;2023-04-06T09:32:49;12.95;;;8.23;;
28266;SDS011;15525;45.568;5.448;2023-04-06T09:35:15;12.93;;;8.32;;
28266;SDS011;15525;45.568;5.448;2023-04-06T09:37:42;12.43;;;8.20;;
28266;SDS011;15525;45.568;5.448;2023-04-06T09:40:08;12.95;;;8.88;;
28266;SDS011;15525;45.568;5.448;2023-04-06T09:42:34;14.32;;;8.60;;
28266;SDS011;15525;45.568;5.448;2023-04-06T09:45:01;12.40;;;8.20;;
28266;SDS011;15525;45.568;5.448;2023-04-06T09:47:27;16.02;;;9.48;;
28266;SDS011;15525;45.568;5.448;2023-04-06T09:49:57;13.30;;;8.35;;
28266;SDS011;15525;45.568;5.448;2023-04-06T09:52:27;14.43;;;9.02;;
28266;SDS011;15525;45.568;5.448;2023-04-06T09:54:59;12.98;;;8.45;;
28266;SDS011;15525;45.568;5.448;2023-04-06T09:57:29;12.82;;;7.70;;
28266;SDS011;15525;45.568;5.448;2023-04-06T10:02:32;14.63;;;8.32;;
28266;SDS011;15525;45.568;5.448;2023-04-06T10:05:27;15.38;;;8.65;;
28266;SDS011;15525;45.568;5.448;2023-04-06T10:07:57;15.30;;;8.90;;
28266;SDS011;15525;45.568;5.448;2023-04-06T10:10:25;12.52;;;8.77;;
28266;SDS011;15525;45.568;5.448;2023-04-06T10:12:51;13.55;;;8.02;;
28266;SDS011;15525;45.568;5.448;2023-04-06T10:15:18;12.80;;;8.18;;
28266;SDS011;15525;45.568;5.448;2023-04-06T10:17:44;14.65;;;9.25;;
28266;SDS011;15525;45.568;5.448;2023-04-06T10:22:45;15.00;;;8.88;;
28266;SDS011;15525;45.568;5.448;2023-04-06T10:25:28;10.98;;;7.95;;
28266;SDS011;15525;45.568;5.448;2023-04-06T10:28:02;13.10;;;8.57;;
28266;SDS011;15525;45.568;5.448;2023-04-06T10:30:30;13.20;;;7.68;;
28266;SDS011;15525;45.568;5.448;2023-04-06T10:32:56;10.88;;;6.93;;
28266;SDS011;15525;45.568;5.448;2023-04-06T10:35:24;9.90;;;6.10;;
28266;SDS011;15525;45.568;5.448;2023-04-06T10:38:03;10.15;;;6.40;;
28266;SDS011;15525;45.568;5.448;2023-04-06T10:40:29;9.85;;;6.43;;
28266;SDS011;15525;45.568;5.448;2023-04-06T10:43:06;7.97;;;5.13;;
28266;SDS011;15525;45.568;5.448;2023-04-06T10:45:36;8.00;;;4.70;;
28266;SDS011;15525;45.568;5.448;2023-04-06T10:48:20;7.75;;;4.95;;
28266;SDS011;15525;45.568;5.448;2023-04-06T10:50:55;9.73;;;6.00;;
28266;SDS011;15525;45.568;5.448;2023-04-06T10:53:22;8.52;;;5.88;;
28266;SDS011;15525;45.568;5.448;2023-04-06T10:55:54;9.27;;;5.50;;
28266;SDS011;15525;45.568;5.448;2023-04-06T10:58:24;7.13;;;4.35;;
28266;SDS011;15525;45.568;5.448;2023-04-06T11:00:52;6.07;;;4.50;;
28266;SDS011;15525;45.568;5.448;2023-04-06T11:03:19;7.68;;;5.03;;
28266;SDS011;15525;45.568;5.448;2023-04-06T11:05:45;7.45;;;5.10;;
28266;SDS011;15525;45.568;5.448;2023-04-06T11:08:29;10.15;;;5.43;;
28266;SDS011;15525;45.568;5.448;2023-04-06T11:11:08;8.20;;;5.57;;
28266;SDS011;15525;45.568;5.448;2023-04-06T11:13:44;8.25;;;5.15;;
28266;SDS011;15525;45.568;5.448;2023-04-06T11:16:24;8.43;;;5.05;;
28266;SDS011;15525;45.568;5.448;2023-04-06T11:21:34;10.55;;;5.60;;
28266;SDS011;15525;45.568;5.448;2023-04-06T11:24:11;8.45;;;5.68;;
28266;SDS011;15525;45.568;5.448;2023-04-06T11:26:41;9.45;;;5.78;;
28266;SDS011;15525;45.568;5.448;2023-04-06T11:29:14;8.43;;;5.05;;
28266;SDS011;15525;45.568;5.448;2023-04-06T11:31:44;10.02;;;6.10;;
28266;SDS011;15525;45.568;5.448;2023-04-06T11:34:18;8.43;;;5.40;;
28266;SDS011;15525;45.568;5.448;2023-04-06T11:39:18;9.48;;;5.53;;
28266;SDS011;15525;45.568;5.448;2023-04-06T11:41:49;8.93;;;5.78;;
28266;SDS011;15525;45.568;5.448;2023-04-06T11:44:26;7.35;;;5.43;;
28266;SDS011;15525;45.568;5.448;2023-04-06T11:47:14;9.07;;;5.80;;
28266;SDS011;15525;45.568;5.448;2023-04-06T11:49:41;7.97;;;5.43;;
28266;SDS011;15525;45.568;5.448;2023-04-06T11:52:19;8.55;;;5.25;;
28266;SDS011;15525;45.568;5.448;2023-04-06T11:54:45;10.07;;;6.13;;
28266;SDS011;15525;45.568;5.448;2023-04-06T11:57:12;9.18;;;5.43;;
28266;SDS011;15525;45.568;5.448;2023-04-06T11:59:37;10.45;;;5.97;;
28266;SDS011;15525;45.568;5.448;2023-04-06T12:02:03;9.00;;;5.50;;
28266;SDS011;15525;45.568;5.448;2023-04-06T12:04:29;8.65;;;5.90;;
28266;SDS011;15525;45.568;5.448;2023-04-06T12:06:55;9.02;;;5.75;;
28266;SDS011;15525;45.568;5.448;2023-04-06T12:09:20;8.15;;;5.72;;
28266;SDS011;15525;45.568;5.448;2023-04-06T12:11:46;8.77;;;5.47;;
28266;SDS011;15525;45.568;5.448;2023-04-06T12:14:12;9.88;;;5.82;;
28266;SDS011;15525;45.568;5.448;2023-04-06T12:16:38;11.70;;;7.63;;
28266;SDS011;15525;45.568;5.448;2023-04-06T12:19:04;8.45;;;5.95;;
28266;SDS011;15525;45.568;5.448;2023-04-06T12:21:32;11.13;;;6.53;;
28266;SDS011;15525;45.568;5.448;2023-04-06T12:24:00;10.75;;;7.20;;
28266;SDS011;15525;45.568;5.448;2023-04-06T12:26:25;8.15;;;5.40;;
28266;SDS011;15525;45.568;5.448;2023-04-06T12:28:52;10.57;;;6.05;;
28266;SDS011;15525;45.568;5.448;2023-04-06T12:31:18;8.45;;;5.97;;
28266;SDS011;15525;45.568;5.448;2023-04-06T12:33:48;6.97;;;4.93;;
28266;SDS011;15525;45.568;5.448;2023-04-06T12:36:18;8.77;;;5.30;;
28266;SDS011;15525;45.568;5.448;2023-04-06T12:38:46;6.55;;;5.05;;
28266;SDS011;15525;45.568;5.448;2023-04-06T12:41:12;7.45;;;4.50;;
28266;SDS011;15525;45.568;5.448;2023-04-06T12:43:41;5.85;;;4.30;;
28266;SDS011;15525;45.568;5.448;2023-04-06T12:46:07;5.68;;;4.13;;
28266;SDS011;15525;45.568;5.448;2023-04-06T12:48:33;5.85;;;4.55;;
28266;SDS011;15525;45.568;5.448;2023-04-06T12:50:59;7.00;;;4.72;;
28266;SDS011;15525;45.568;5.448;2023-04-06T12:53:27;6.57;;;4.50;;
28266;SDS011;15525;45.568;5.448;2023-04-06T12:55:53;6.63;;;4.30;;
28266;SDS011;15525;45.568;5.448;2023-04-06T12:58:19;5.88;;;4.40;;
28266;SDS011;15525;45.568;5.448;2023-04-06T13:00:45;9.15;;;4.47;;
28266;SDS011;15525;45.568;5.448;2023-04-06T13:03:11;6.07;;;4.43;;
28266;SDS011;15525;45.568;5.448;2023-04-06T13:05:42;5.97;;;4.32;;
28266;SDS011;15525;45.568;5.448;2023-04-06T13:08:09;6.55;;;4.07;;
28266;SDS011;15525;45.568;5.448;2023-04-06T13:10:35;5.50;;;4.10;;
28266;SDS011;15525;45.568;5.448;2023-04-06T13:13:00;4.95;;;3.97;;
28266;SDS011;15525;45.568;5.448;2023-04-06T13:15:25;6.68;;;4.32;;
28266;SDS011;15525;45.568;5.448;2023-04-06T13:17:51;4.78;;;3.85;;
28266;SDS011;15525;45.568;5.448;2023-04-06T13:20:16;7.55;;;4.47;;
28266;SDS011;15525;45.568;5.448;2023-04-06T13:22:42;6.05;;;4.15;;
28266;SDS011;15525;45.568;5.448;2023-04-06T13:25:07;6.80;;;4.07;;
28266;SDS011;15525;45.568;5.448;2023-04-06T13:27:33;6.57;;;4.13;;
28266;SDS011;15525;45.568;5.448;2023-04-06T13:30:00;5.80;;;4.20;;
28266;SDS011;15525;45.568;5.448;2023-04-06T13:32:26;6.00;;;3.92;;
28266;SDS011;15525;45.568;5.448;2023-04-06T13:34:55;6.32;;;4.15;;
28266;SDS011;15525;45.568;5.448;2023-04-06T13:37:21;5.15;;;3.80;;
28266;SDS011;15525;45.568;5.448;2023-04-06T13:39:46;5.20;;;3.78;;
28266;SDS011;15525;45.568;5.448;2023-04-06T13:42:11;4.75;;;3.55;;
28266;SDS011;15525;45.568;5.448;2023-04-06T13:44:37;5.15;;;3.58;;
28266;SDS011;15525;45.568;5.448;2023-04-06T13:47:02;7.72;;;3.53;;
28266;SDS011;15525;45.568;5.448;2023-04-06T13:49:28;3.58;;;3.15;;
28266;SDS011;15525;45.568;5.448;2023-04-06T13:51:53;5.40;;;3.53;;
28266;SDS011;15525;45.568;5.448;2023-04-06T13:54:19;5.45;;;3.58;;
28266;SDS011;15525;45.568;5.448;2023-04-06T13:56:45;4.47;;;3.50;;
28266;SDS011;15525;45.568;5.448;2023-04-06T13:59:10;4.13;;;3.28;;
28266;SDS011;15525;45.568;5.448;2023-04-06T14:01:36;3.38;;;2.97;;
28266;SDS011;15525;45.568;5.448;2023-04-06T14:04:02;4.50;;;2.83;;
28266;SDS011;15525;45.568;5.448;2023-04-06T14:06:27;4.57;;;3.17;;
28266;SDS011;15525;45.568;5.448;2023-04-06T14:08:53;4.40;;;3.20;;
28266;SDS011;15525;45.568;5.448;2023-04-06T14:11:18;3.85;;;2.53;;
28266;SDS011;15525;45.568;5.448;2023-04-06T14:13:44;3.15;;;2.25;;
28266;SDS011;15525;45.568;5.448;2023-04-06T14:16:10;3.53;;;2.33;;
28266;SDS011;15525;45.568;5.448;2023-04-06T14:18:36;3.47;;;2.25;;
28266;SDS011;15525;45.568;5.448;2023-04-06T14:21:02;2.85;;;2.10;;
28266;SDS011;15525;45.568;5.448;2023-04-06T14:23:27;4.82;;;2.33;;
28266;SDS011;15525;45.568;5.448;2023-04-06T14:26:06;3.10;;;2.60;;
28266;SDS011;15525;45.568;5.448;2023-04-06T14:28:33;3.17;;;2.47;;
28266;SDS011;15525;45.568;5.448;2023-04-06T14:31:00;3.83;;;2.47;;
28266;SDS011;15525;45.568;5.448;2023-04-06T14:33:27;2.92;;;2.35;;
28266;SDS011;15525;45.568;5.448;2023-04-06T14:35:53;3.20;;;2.22;;
28266;SDS011;15525;45.568;5.448;2023-04-06T14:38:18;5.35;;;2.63;;
28266;SDS011;15525;45.568;5.448;2023-04-06T14:40:44;5.03;;;2.70;;
28266;SDS011;15525;45.568;5.448;2023-04-06T14:43:09;3.70;;;2.80;;
28266;SDS011;15525;45.568;5.448;2023-04-06T14:45:34;5.05;;;2.55;;
28266;SDS011;15525;45.568;5.448;2023-04-06T14:48:01;5.13;;;2.72;;